sensor_id;sensor_type;location;lat;lon;timestamp;pressure;altitude;pressure_sealevel;temperature
64296;BMP280;51082;38.236;15.432;2022-10-16T00:00:51;101852.19;;;18.85
64296;BMP280;51082;38.236;15.432;2022-10-16T00:01:54;101844.09;;;18.80
64296;BMP280;51082;38.236;15.432;2022-10-16T00:02:55;101846.09;;;18.84
64296;BMP280;51082;38.236;15.432;2022-10-16T00:03:59;101848.72;;;18.84
64296;BMP280;51082;38.236;15.432;2022-10-16T00:05:01;101841.25;;;18.81
64296;BMP280;51082;38.236;15.432;2022-10-16T00:06:04;101843.09;;;18.81
64296;BMP280;51082;38.236;15.432;2022-10-16T00:07:06;101842.06;;;18.82
64296;BMP280;51082;38.236;15.432;2022-10-16T00:08:11;101848.97;;;18.83
64296;BMP280;51082;38.236;15.432;2022-10-16T00:09:12;101844.50;;;18.83
64296;BMP280;51082;38.236;15.432;2022-10-16T00:10:17;101843.09;;;18.81
64296;BMP280;51082;38.236;15.432;2022-10-16T00:11:20;101845.72;;;18.81
64296;BMP280;51082;38.236;15.432;2022-10-16T00:12:23;101846.16;;;18.77
64296;BMP280;51082;38.236;15.432;2022-10-16T00:13:24;101849.00;;;18.76
64296;BMP280;51082;38.236;15.432;2022-10-16T00:14:27;101841.31;;;18.74
64296;BMP280;51082;38.236;15.432;2022-10-16T00:15:29;101839.69;;;18.73
64296;BMP280;51082;38.236;15.432;2022-10-16T00:16:31;101836.47;;;18.71
64296;BMP280;51082;38.236;15.432;2022-10-16T00:17:33;101844.59;;;18.70
64296;BMP280;51082;38.236;15.432;2022-10-16T00:18:36;101840.56;;;18.67
64296;BMP280;51082;38.236;15.432;2022-10-16T00:19:38;101840.56;;;18.67
64296;BMP280;51082;38.236;15.432;2022-10-16T00:20:40;101838.31;;;18.71
64296;BMP280;51082;38.236;15.432;2022-10-16T00:21:42;101845.81;;;18.74
64296;BMP280;51082;38.236;15.432;2022-10-16T00:22:45;101847.47;;;18.68
64296;BMP280;51082;38.236;15.432;2022-10-16T00:23:49;101843.84;;;18.69
64296;BMP280;51082;38.236;15.432;2022-10-16T00:24:52;101837.94;;;18.67
64296;BMP280;51082;38.236;15.432;2022-10-16T00:25:59;101842.63;;;18.65
64296;BMP280;51082;38.236;15.432;2022-10-16T00:27:02;101842.63;;;18.65
64296;BMP280;51082;38.236;15.432;2022-10-16T00:28:04;101842.25;;;18.62
64296;BMP280;51082;38.236;15.432;2022-10-16T00:29:07;101847.16;;;18.58
64296;BMP280;51082;38.236;15.432;2022-10-16T00:30:09;101846.78;;;18.55
64296;BMP280;51082;38.236;15.432;2022-10-16T00:31:12;101845.97;;;18.54
64296;BMP280;51082;38.236;15.432;2022-10-16T00:32:14;101843.34;;;18.54
64296;BMP280;51082;38.236;15.432;2022-10-16T00:33:17;101850.66;;;18.52
64296;BMP280;51082;38.236;15.432;2022-10-16T00:34:18;101847.78;;;18.54
64296;BMP280;51082;38.236;15.432;2022-10-16T00:35:21;101851.25;;;18.54
64296;BMP280;51082;38.236;15.432;2022-10-16T00:36:24;101841.13;;;18.51
64296;BMP280;51082;38.236;15.432;2022-10-16T00:37:27;101849.84;;;18.52
64296;BMP280;51082;38.236;15.432;2022-10-16T00:38:29;101846.41;;;18.51
64296;BMP280;51082;38.236;15.432;2022-10-16T00:39:31;101849.63;;;18.53
64296;BMP280;51082;38.236;15.432;2022-10-16T00:40:33;101845.97;;;18.54
64296;BMP280;51082;38.236;15.432;2022-10-16T00:41:37;101845.16;;;18.54
64296;BMP280;51082;38.236;15.432;2022-10-16T00:42:39;101847.56;;;18.55
64296;BMP280;51082;38.236;15.432;2022-10-16T00:43:43;101856.50;;;18.54
64296;BMP280;51082;38.236;15.432;2022-10-16T00:44:48;101842.75;;;18.52
64296;BMP280;51082;38.236;15.432;2022-10-16T00:45:53;101842.31;;;18.55
64296;BMP280;51082;38.236;15.432;2022-10-16T00:46:55;101841.72;;;18.53
64296;BMP280;51082;38.236;15.432;2022-10-16T00:47:57;101846.78;;;18.55
64296;BMP280;51082;38.236;15.432;2022-10-16T00:49:03;101848.16;;;18.57
64296;BMP280;51082;38.236;15.432;2022-10-16T00:50:09;101842.53;;;18.54
64296;BMP280;51082;38.236;15.432;2022-10-16T00:51:11;101847.56;;;18.55
64296;BMP280;51082;38.236;15.432;2022-10-16T00:52:14;101849.78;;;18.58
64296;BMP280;51082;38.236;15.432;2022-10-16T00:53:16;101851.19;;;18.61
64296;BMP280;51082;38.236;15.432;2022-10-16T00:54:21;101847.75;;;18.60
64296;BMP280;51082;38.236;15.432;2022-10-16T00:55:24;101836.59;;;18.58
64296;BMP280;51082;38.236;15.432;2022-10-16T00:56:27;101834.97;;;18.57
64296;BMP280;51082;38.236;15.432;2022-10-16T00:57:31;101840.25;;;18.57
64296;BMP280;51082;38.236;15.432;2022-10-16T00:58:33;101832.34;;;18.57
64296;BMP280;51082;38.236;15.432;2022-10-16T00:59:38;101841.88;;;18.58
64296;BMP280;51082;38.236;15.432;2022-10-16T01:00:40;101844.50;;;18.58
64296;BMP280;51082;38.236;15.432;2022-10-16T01:01:42;101837.03;;;18.55
64296;BMP280;51082;38.236;15.432;2022-10-16T01:02:44;101831.75;;;18.55
64296;BMP280;51082;38.236;15.432;2022-10-16T01:03:47;101830.72;;;18.56
64296;BMP280;51082;38.236;15.432;2022-10-16T01:04:50;101827.06;;;18.57
64296;BMP280;51082;38.236;15.432;2022-10-16T01:06:02;101833.38;;;18.56
64296;BMP280;51082;38.236;15.432;2022-10-16T01:07:12;101837.47;;;18.52
64296;BMP280;51082;38.236;15.432;2022-10-16T01:08:20;101841.75;;;18.47
64296;BMP280;51082;38.236;15.432;2022-10-16T01:09:28;101834.88;;;18.46
64296;BMP280;51082;38.236;15.432;2022-10-16T01:10:38;101841.19;;;18.44
64296;BMP280;51082;38.236;15.432;2022-10-16T01:11:49;101846.06;;;18.41
64296;BMP280;51082;38.236;15.432;2022-10-16T01:12:59;101837.56;;;18.39
64296;BMP280;51082;38.236;15.432;2022-10-16T01:14:06;101835.31;;;18.42
64296;BMP280;51082;38.236;15.432;2022-10-16T01:15:18;101834.06;;;18.45
64296;BMP280;51082;38.236;15.432;2022-10-16T01:16:30;101841.59;;;18.41
64296;BMP280;51082;38.236;15.432;2022-10-16T01:17:41;101841.56;;;18.48
64296;BMP280;51082;38.236;15.432;2022-10-16T01:18:46;101834.88;;;18.46
64296;BMP280;51082;38.236;15.432;2022-10-16T01:20:08;101838.53;;;18.44
64296;BMP280;51082;38.236;15.432;2022-10-16T01:21:14;101832.69;;;18.42
64296;BMP280;51082;38.236;15.432;2022-10-16T01:22:20;101840.00;;;18.40
64296;BMP280;51082;38.236;15.432;2022-10-16T01:23:36;101834.94;;;18.39
64296;BMP280;51082;38.236;15.432;2022-10-16T01:24:44;101830.03;;;18.42
64296;BMP280;51082;38.236;15.432;2022-10-16T01:25:57;101831.03;;;18.41
64296;BMP280;51082;38.236;15.432;2022-10-16T01:27:12;101838.94;;;18.41
64296;BMP280;51082;38.236;15.432;2022-10-16T01:28:17;101841.81;;;18.40
64296;BMP280;51082;38.236;15.432;2022-10-16T01:29:25;101842.84;;;18.39
64296;BMP280;51082;38.236;15.432;2022-10-16T01:30:31;101843.28;;;18.36
64296;BMP280;51082;38.236;15.432;2022-10-16T01:31:35;101846.50;;;18.38
64296;BMP280;51082;38.236;15.432;2022-10-16T01:32:41;101841.41;;;18.43
64296;BMP280;51082;38.236;15.432;2022-10-16T01:33:47;101843.44;;;18.41
64296;BMP280;51082;38.236;15.432;2022-10-16T01:34:54;101848.28;;;18.44
64296;BMP280;51082;38.236;15.432;2022-10-16T01:36:02;101852.94;;;18.42
64296;BMP280;51082;38.236;15.432;2022-10-16T01:37:12;101851.50;;;18.46
64296;BMP280;51082;38.236;15.432;2022-10-16T01:38:18;101848.28;;;18.44
64296;BMP280;51082;38.236;15.432;2022-10-16T01:39:24;101847.91;;;18.40
64296;BMP280;51082;38.236;15.432;2022-10-16T01:40:31;101844.03;;;18.43
64296;BMP280;51082;38.236;15.432;2022-10-16T01:41:38;101853.97;;;18.41
64296;BMP280;51082;38.236;15.432;2022-10-16T01:42:42;101847.31;;;18.38
64296;BMP280;51082;38.236;15.432;2022-10-16T01:43:48;101844.47;;;18.40
64296;BMP280;51082;38.236;15.432;2022-10-16T01:44:52;101850.13;;;18.37
64296;BMP280;51082;38.236;15.432;2022-10-16T01:45:55;101848.72;;;18.41
64296;BMP280;51082;38.236;15.432;2022-10-16T01:46:58;101847.31;;;18.38
64296;BMP280;51082;38.236;15.432;2022-10-16T01:48:03;101849.16;;;18.38
64296;BMP280;51082;38.236;15.432;2022-10-16T01:49:09;101846.94;;;18.35
64296;BMP280;51082;38.236;15.432;2022-10-16T01:50:14;101849.56;;;18.35
64296;BMP280;51082;38.236;15.432;2022-10-16T01:51:18;101848.16;;;18.32
64296;BMP280;51082;38.236;15.432;2022-10-16T01:52:23;101851.41;;;18.34
64296;BMP280;51082;38.236;15.432;2022-10-16T01:53:26;101848.94;;;18.33
64296;BMP280;51082;38.236;15.432;2022-10-16T01:54:30;101853.41;;;18.32
64296;BMP280;51082;38.236;15.432;2022-10-16T01:55:36;101849.84;;;18.27
64296;BMP280;51082;38.236;15.432;2022-10-16T01:56:40;101853.50;;;18.26
64296;BMP280;51082;38.236;15.432;2022-10-16T01:57:46;101851.41;;;18.28
64296;BMP280;51082;38.236;15.432;2022-10-16T01:58:53;101856.13;;;18.26
64296;BMP280;51082;38.236;15.432;2022-10-16T02:00:00;101847.59;;;18.24
64296;BMP280;51082;38.236;15.432;2022-10-16T02:01:04;101854.53;;;18.25
64296;BMP280;51082;38.236;15.432;2022-10-16T02:02:09;101854.53;;;18.25
64296;BMP280;51082;38.236;15.432;2022-10-16T02:03:16;101855.50;;;18.30
64296;BMP280;51082;38.236;15.432;2022-10-16T02:04:21;101854.47;;;18.31
64296;BMP280;51082;38.236;15.432;2022-10-16T02:05:28;101857.47;;;18.35
64296;BMP280;51082;38.236;15.432;2022-10-16T02:06:32;101853.03;;;18.35
64296;BMP280;51082;38.236;15.432;2022-10-16T02:07:35;101859.34;;;18.28
64296;BMP280;51082;38.236;15.432;2022-10-16T02:08:37;101854.31;;;18.26
64296;BMP280;51082;38.236;15.432;2022-10-16T02:09:41;101861.56;;;18.31
64296;BMP280;51082;38.236;15.432;2022-10-16T02:10:43;101856.69;;;18.28
64296;BMP280;51082;38.236;15.432;2022-10-16T02:11:45;101859.75;;;18.31
64296;BMP280;51082;38.236;15.432;2022-10-16T02:12:52;101863.63;;;18.29
64296;BMP280;51082;38.236;15.432;2022-10-16T02:14:01;101856.94;;;18.26
64296;BMP280;51082;38.236;15.432;2022-10-16T02:15:05;101857.97;;;18.25
64296;BMP280;51082;38.236;15.432;2022-10-16T02:16:09;101859.16;;;18.23
64296;BMP280;51082;38.236;15.432;2022-10-16T02:17:12;101858.38;;;18.22
64296;BMP280;51082;38.236;15.432;2022-10-16T02:18:15;101868.53;;;18.19
64296;BMP280;51082;38.236;15.432;2022-10-16T02:19:18;101871.31;;;18.24
64296;BMP280;51082;38.236;15.432;2022-10-16T02:20:25;101867.69;;;18.25
64296;BMP280;51082;38.236;15.432;2022-10-16T02:21:29;101870.53;;;18.23
64296;BMP280;51082;38.236;15.432;2022-10-16T02:22:38;101871.78;;;18.21
64296;BMP280;51082;38.236;15.432;2022-10-16T02:23:47;101870.13;;;18.20
64296;BMP280;51082;38.236;15.432;2022-10-16T02:24:54;101877.44;;;18.18
64296;BMP280;51082;38.236;15.432;2022-10-16T02:25:58;101869.78;;;18.16
64296;BMP280;51082;38.236;15.432;2022-10-16T02:27:05;101869.78;;;18.16
64296;BMP280;51082;38.236;15.432;2022-10-16T02:28:14;101870.59;;;18.17
64296;BMP280;51082;38.236;15.432;2022-10-16T02:29:22;101871.63;;;18.16
64296;BMP280;51082;38.236;15.432;2022-10-16T02:30:29;101870.19;;;18.13
64296;BMP280;51082;38.236;15.432;2022-10-16T02:31:35;101869.63;;;18.11
64296;BMP280;51082;38.236;15.432;2022-10-16T02:32:39;101869.41;;;18.13
64296;BMP280;51082;38.236;15.432;2022-10-16T02:33:45;101871.41;;;18.10
64296;BMP280;51082;38.236;15.432;2022-10-16T02:34:48;101876.50;;;18.12
64296;BMP280;51082;38.236;15.432;2022-10-16T02:35:52;101878.34;;;18.11
64296;BMP280;51082;38.236;15.432;2022-10-16T02:36:54;101870.19;;;18.13
64296;BMP280;51082;38.236;15.432;2022-10-16T02:37:58;101866.13;;;18.10
64296;BMP280;51082;38.236;15.432;2022-10-16T02:39:00;101865.72;;;18.13
64296;BMP280;51082;38.236;15.432;2022-10-16T02:40:06;101864.28;;;18.18
64296;BMP280;51082;38.236;15.432;2022-10-16T02:41:08;101872.78;;;18.20
64296;BMP280;51082;38.236;15.432;2022-10-16T02:42:11;101870.97;;;18.20
64296;BMP280;51082;38.236;15.432;2022-10-16T02:43:15;101865.69;;;18.20
64296;BMP280;51082;38.236;15.432;2022-10-16T02:44:18;101872.78;;;18.20
64296;BMP280;51082;38.236;15.432;2022-10-16T02:45:20;101872.19;;;18.18
64296;BMP280;51082;38.236;15.432;2022-10-16T02:46:23;101868.75;;;18.17
64296;BMP280;51082;38.236;15.432;2022-10-16T02:47:25;101871.41;;;18.17
64296;BMP280;51082;38.236;15.432;2022-10-16T02:48:27;101875.06;;;18.16
64296;BMP280;51082;38.236;15.432;2022-10-16T02:49:29;101865.72;;;18.13
64296;BMP280;51082;38.236;15.432;2022-10-16T02:50:31;101879.94;;;18.13
64296;BMP280;51082;38.236;15.432;2022-10-16T02:51:33;101871.41;;;18.10
64296;BMP280;51082;38.236;15.432;2022-10-16T02:52:36;101873.06;;;18.11
64296;BMP280;51082;38.236;15.432;2022-10-16T02:53:37;101872.59;;;18.15
64296;BMP280;51082;38.236;15.432;2022-10-16T02:54:40;101874.44;;;18.14
64296;BMP280;51082;38.236;15.432;2022-10-16T02:55:41;101870.44;;;18.11
64296;BMP280;51082;38.236;15.432;2022-10-16T02:56:44;101873.06;;;18.11
64296;BMP280;51082;38.236;15.432;2022-10-16T02:57:46;101875.69;;;18.11
64296;BMP280;51082;38.236;15.432;2022-10-16T02:58:50;101868.13;;;18.15
64296;BMP280;51082;38.236;15.432;2022-10-16T02:59:51;101874.25;;;18.16
64296;BMP280;51082;38.236;15.432;2022-10-16T03:00:55;101878.91;;;18.13
64296;BMP280;51082;38.236;15.432;2022-10-16T03:01:56;101884.34;;;18.19
64296;BMP280;51082;38.236;15.432;2022-10-16T03:02:59;101877.69;;;18.16
64296;BMP280;51082;38.236;15.432;2022-10-16T03:04:01;101882.78;;;18.11
64296;BMP280;51082;38.236;15.432;2022-10-16T03:05:04;101875.44;;;18.13
64296;BMP280;51082;38.236;15.432;2022-10-16T03:06:06;101873.63;;;18.13
64296;BMP280;51082;38.236;15.432;2022-10-16T03:07:08;101879.94;;;18.13
64296;BMP280;51082;38.236;15.432;2022-10-16T03:08:10;101876.50;;;18.12
64296;BMP280;51082;38.236;15.432;2022-10-16T03:09:13;101874.06;;;18.10
64296;BMP280;51082;38.236;15.432;2022-10-16T03:10:14;101878.16;;;18.06
64296;BMP280;51082;38.236;15.432;2022-10-16T03:11:17;101885.22;;;18.13
64296;BMP280;51082;38.236;15.432;2022-10-16T03:12:18;101879.94;;;18.13
64296;BMP280;51082;38.236;15.432;2022-10-16T03:13:21;101876.91;;;18.09
64296;BMP280;51082;38.236;15.432;2022-10-16T03:14:24;101879.78;;;18.07
64296;BMP280;51082;38.236;15.432;2022-10-16T03:15:27;101881.78;;;18.05
64296;BMP280;51082;38.236;15.432;2022-10-16T03:16:29;101881.63;;;18.00
64296;BMP280;51082;38.236;15.432;2022-10-16T03:17:32;101884.06;;;18.02
64296;BMP280;51082;38.236;15.432;2022-10-16T03:18:34;101875.53;;;18.00
64296;BMP280;51082;38.236;15.432;2022-10-16T03:19:37;101882.25;;;18.02
64296;BMP280;51082;38.236;15.432;2022-10-16T03:20:38;101883.22;;;18.01
64296;BMP280;51082;38.236;15.432;2022-10-16T03:21:41;101881.63;;;18.00
64296;BMP280;51082;38.236;15.432;2022-10-16T03:22:42;101884.88;;;18.02
64296;BMP280;51082;38.236;15.432;2022-10-16T03:23:45;101879.16;;;18.05
64296;BMP280;51082;38.236;15.432;2022-10-16T03:24:47;101885.69;;;18.03
64296;BMP280;51082;38.236;15.432;2022-10-16T03:25:50;101883.03;;;18.03
64296;BMP280;51082;38.236;15.432;2022-10-16T03:26:51;101880.00;;;17.99
64296;BMP280;51082;38.236;15.432;2022-10-16T03:27:54;101881.63;;;18.00
64296;BMP280;51082;38.236;15.432;2022-10-16T03:28:56;101881.63;;;18.00
64296;BMP280;51082;38.236;15.432;2022-10-16T03:30:00;101881.63;;;18.00
64296;BMP280;51082;38.236;15.432;2022-10-16T03:31:01;101888.94;;;17.98
64296;BMP280;51082;38.236;15.432;2022-10-16T03:32:04;101885.25;;;17.99
64296;BMP280;51082;38.236;15.432;2022-10-16T03:33:06;101882.63;;;17.99
64296;BMP280;51082;38.236;15.432;2022-10-16T03:34:08;101886.31;;;17.98
64296;BMP280;51082;38.236;15.432;2022-10-16T03:35:10;101885.69;;;17.96
64296;BMP280;51082;38.236;15.432;2022-10-16T03:36:12;101894.63;;;17.95
64296;BMP280;51082;38.236;15.432;2022-10-16T03:37:15;101890.34;;;17.94
64296;BMP280;51082;38.236;15.432;2022-10-16T03:38:17;101888.16;;;17.91
64296;BMP280;51082;38.236;15.432;2022-10-16T03:39:19;101894.03;;;17.93
64296;BMP280;51082;38.236;15.432;2022-10-16T03:40:21;101891.41;;;17.93
64296;BMP280;51082;38.236;15.432;2022-10-16T03:41:24;101889.75;;;17.92
64296;BMP280;51082;38.236;15.432;2022-10-16T03:42:25;101893.00;;;17.94
64296;BMP280;51082;38.236;15.432;2022-10-16T03:43:28;101896.22;;;17.96
64296;BMP280;51082;38.236;15.432;2022-10-16T03:44:30;101890.16;;;17.96
64296;BMP280;51082;38.236;15.432;2022-10-16T03:45:34;101894.63;;;17.95
64296;BMP280;51082;38.236;15.432;2022-10-16T03:46:35;101904.59;;;17.93
64296;BMP280;51082;38.236;15.432;2022-10-16T03:47:38;101900.13;;;17.94
64296;BMP280;51082;38.236;15.432;2022-10-16T03:48:40;101900.47;;;17.97
64296;BMP280;51082;38.236;15.432;2022-10-16T03:49:42;101907.53;;;18.03
64296;BMP280;51082;38.236;15.432;2022-10-16T03:50:44;101906.94;;;18.01
64296;BMP280;51082;38.236;15.432;2022-10-16T03:51:47;101904.31;;;18.01
64296;BMP280;51082;38.236;15.432;2022-10-16T03:52:48;101902.28;;;18.03
64296;BMP280;51082;38.236;15.432;2022-10-16T03:53:51;101904.13;;;18.03
64296;BMP280;51082;38.236;15.432;2022-10-16T03:54:53;101915.44;;;18.03
64296;BMP280;51082;38.236;15.432;2022-10-16T03:55:55;101903.50;;;18.01
64296;BMP280;51082;38.236;15.432;2022-10-16T03:56:57;101908.75;;;18.01
64296;BMP280;51082;38.236;15.432;2022-10-16T03:57:59;101909.56;;;18.01
64296;BMP280;51082;38.236;15.432;2022-10-16T03:59:01;101901.25;;;18.04
64296;BMP280;51082;38.236;15.432;2022-10-16T04:00:04;101906.31;;;18.06
64296;BMP280;51082;38.236;15.432;2022-10-16T04:01:08;101900.84;;;18.07
64296;BMP280;51082;38.236;15.432;2022-10-16T04:02:10;101907.53;;;18.03
64296;BMP280;51082;38.236;15.432;2022-10-16T04:03:12;101908.59;;;18.02
64296;BMP280;51082;38.236;15.432;2022-10-16T04:04:14;101906.13;;;18.01
64296;BMP280;51082;38.236;15.432;2022-10-16T04:05:16;101901.88;;;18.00
64296;BMP280;51082;38.236;15.432;2022-10-16T04:06:19;101903.09;;;17.97
64296;BMP280;51082;38.236;15.432;2022-10-16T04:07:20;101904.50;;;18.00
64296;BMP280;51082;38.236;15.432;2022-10-16T04:08:23;101901.88;;;18.00
64296;BMP280;51082;38.236;15.432;2022-10-16T04:09:25;101897.84;;;17.97
64296;BMP280;51082;38.236;15.432;2022-10-16T04:10:27;101906.75;;;17.96
64296;BMP280;51082;38.236;15.432;2022-10-16T04:11:29;101910.03;;;17.98
64296;BMP280;51082;38.236;15.432;2022-10-16T04:12:31;101904.75;;;17.98
64296;BMP280;51082;38.236;15.432;2022-10-16T04:13:33;101913.44;;;17.99
64296;BMP280;51082;38.236;15.432;2022-10-16T04:14:36;101910.03;;;17.98
64296;BMP280;51082;38.236;15.432;2022-10-16T04:15:37;101911.84;;;17.98
64296;BMP280;51082;38.236;15.432;2022-10-16T04:16:41;101903.94;;;17.98
64296;BMP280;51082;38.236;15.432;2022-10-16T04:17:43;101915.31;;;17.98
64296;BMP280;51082;38.236;15.432;2022-10-16T04:18:46;101915.13;;;17.93
64296;BMP280;51082;38.236;15.432;2022-10-16T04:19:47;101907.22;;;17.93
64296;BMP280;51082;38.236;15.432;2022-10-16T04:20:50;101913.47;;;17.92
64296;BMP280;51082;38.236;15.432;2022-10-16T04:21:51;101913.66;;;17.97
64296;BMP280;51082;38.236;15.432;2022-10-16T04:22:54;101915.69;;;17.95
64296;BMP280;51082;38.236;15.432;2022-10-16T04:23:56;101912.03;;;17.96
64296;BMP280;51082;38.236;15.432;2022-10-16T04:24:58;101914.66;;;17.96
64296;BMP280;51082;38.236;15.432;2022-10-16T04:26:00;101908.59;;;17.96
64296;BMP280;51082;38.236;15.432;2022-10-16T04:27:03;101914.06;;;17.94
64296;BMP280;51082;38.236;15.432;2022-10-16T04:28:05;101908.81;;;17.94
64296;BMP280;51082;38.236;15.432;2022-10-16T04:29:07;101913.88;;;17.96
64296;BMP280;51082;38.236;15.432;2022-10-16T04:30:10;101918.56;;;17.94
64296;BMP280;51082;38.236;15.432;2022-10-16T04:31:12;101909.63;;;17.95
64296;BMP280;51082;38.236;15.432;2022-10-16T04:32:15;101913.22;;;18.00
64296;BMP280;51082;38.236;15.432;2022-10-16T04:33:18;101909.97;;;18.05
64296;BMP280;51082;38.236;15.432;2022-10-16T04:34:20;101917.31;;;18.03
64296;BMP280;51082;38.236;15.432;2022-10-16T04:35:22;101909.78;;;18.06
64296;BMP280;51082;38.236;15.432;2022-10-16T04:36:24;101921.31;;;18.05
64296;BMP280;51082;38.236;15.432;2022-10-16T04:37:27;101920.88;;;18.08
64296;BMP280;51082;38.236;15.432;2022-10-16T04:38:29;101916.03;;;18.05
64296;BMP280;51082;38.236;15.432;2022-10-16T04:39:32;101915.63;;;18.08
64296;BMP280;51082;38.236;15.432;2022-10-16T04:40:33;101920.31;;;18.06
64296;BMP280;51082;38.236;15.432;2022-10-16T04:41:37;101921.31;;;18.05
64296;BMP280;51082;38.236;15.432;2022-10-16T04:42:39;101921.69;;;18.09
64296;BMP280;51082;38.236;15.432;2022-10-16T04:43:41;101927.78;;;18.09
64296;BMP280;51082;38.236;15.432;2022-10-16T04:44:43;101925.38;;;18.08
64296;BMP280;51082;38.236;15.432;2022-10-16T04:45:46;101924.13;;;18.10
64296;BMP280;51082;38.236;15.432;2022-10-16T04:46:49;101924.75;;;18.13
64296;BMP280;51082;38.236;15.432;2022-10-16T04:47:56;101924.75;;;18.13
64296;BMP280;51082;38.236;15.432;2022-10-16T04:48:58;101929.59;;;18.16
64296;BMP280;51082;38.236;15.432;2022-10-16T04:50:01;101926.56;;;18.12
64296;BMP280;51082;38.236;15.432;2022-10-16T04:51:04;101924.13;;;18.10
64296;BMP280;51082;38.236;15.432;2022-10-16T04:52:06;101928.97;;;18.13
64296;BMP280;51082;38.236;15.432;2022-10-16T04:53:10;101928.56;;;18.17
64296;BMP280;51082;38.236;15.432;2022-10-16T04:54:13;101922.69;;;18.15
64296;BMP280;51082;38.236;15.432;2022-10-16T04:55:14;101924.13;;;18.17
64296;BMP280;51082;38.236;15.432;2022-10-16T04:56:17;101922.44;;;18.23
64296;BMP280;51082;38.236;15.432;2022-10-16T04:57:19;101928.75;;;18.22
64296;BMP280;51082;38.236;15.432;2022-10-16T04:58:21;101929.78;;;18.21
64296;BMP280;51082;38.236;15.432;2022-10-16T04:59:23;101932.59;;;18.19
64296;BMP280;51082;38.236;15.432;2022-10-16T05:00:26;101927.31;;;18.19
64296;BMP280;51082;38.236;15.432;2022-10-16T05:01:27;101927.31;;;18.19
64296;BMP280;51082;38.236;15.432;2022-10-16T05:02:30;101920.66;;;18.17
64296;BMP280;51082;38.236;15.432;2022-10-16T05:03:34;101922.84;;;18.20
64296;BMP280;51082;38.236;15.432;2022-10-16T05:04:36;101920.84;;;18.22
64296;BMP280;51082;38.236;15.432;2022-10-16T05:05:42;101931.38;;;18.22
64296;BMP280;51082;38.236;15.432;2022-10-16T05:06:45;101930.75;;;18.26
64296;BMP280;51082;38.236;15.432;2022-10-16T05:07:46;101925.47;;;18.26
64296;BMP280;51082;38.236;15.432;2022-10-16T05:08:49;101927.13;;;18.21
64296;BMP280;51082;38.236;15.432;2022-10-16T05:09:50;101924.03;;;18.24
64296;BMP280;51082;38.236;15.432;2022-10-16T05:10:54;101921.06;;;18.20
64296;BMP280;51082;38.236;15.432;2022-10-16T05:11:55;101919.59;;;18.24
64296;BMP280;51082;38.236;15.432;2022-10-16T05:12:58;101918.22;;;18.22
64296;BMP280;51082;38.236;15.432;2022-10-16T05:14:00;101925.31;;;18.21
64296;BMP280;51082;38.236;15.432;2022-10-16T05:15:03;101919.59;;;18.24
64296;BMP280;51082;38.236;15.432;2022-10-16T05:16:06;101919.16;;;18.27
64296;BMP280;51082;38.236;15.432;2022-10-16T05:17:08;101921.59;;;18.29
64296;BMP280;51082;38.236;15.432;2022-10-16T05:18:10;101922.75;;;18.33
64296;BMP280;51082;38.236;15.432;2022-10-16T05:19:14;101922.75;;;18.33
64296;BMP280;51082;38.236;15.432;2022-10-16T05:20:16;101925.22;;;18.34
64296;BMP280;51082;38.236;15.432;2022-10-16T05:21:18;101923.59;;;18.33
64296;BMP280;51082;38.236;15.432;2022-10-16T05:22:20;101932.31;;;18.34
64296;BMP280;51082;38.236;15.432;2022-10-16T05:23:23;101932.09;;;18.35
64296;BMP280;51082;38.236;15.432;2022-10-16T05:24:25;101930.50;;;18.34
64296;BMP280;51082;38.236;15.432;2022-10-16T05:25:28;101931.31;;;18.35
64296;BMP280;51082;38.236;15.432;2022-10-16T05:26:30;101929.84;;;18.39
64296;BMP280;51082;38.236;15.432;2022-10-16T05:27:32;101921.94;;;18.39
64296;BMP280;51082;38.236;15.432;2022-10-16T05:28:34;101925.38;;;18.39
64296;BMP280;51082;38.236;15.432;2022-10-16T05:29:37;101922.75;;;18.39
64296;BMP280;51082;38.236;15.432;2022-10-16T05:30:39;101931.09;;;18.36
64296;BMP280;51082;38.236;15.432;2022-10-16T05:31:41;101923.97;;;18.37
64296;BMP280;51082;38.236;15.432;2022-10-16T05:32:46;101930.28;;;18.36
64296;BMP280;51082;38.236;15.432;2022-10-16T05:33:49;101929.66;;;18.40
64296;BMP280;51082;38.236;15.432;2022-10-16T05:34:52;101934.75;;;18.35
64296;BMP280;51082;38.236;15.432;2022-10-16T05:35:54;101930.50;;;18.34
64296;BMP280;51082;38.236;15.432;2022-10-16T05:36:56;101936.56;;;18.35
64296;BMP280;51082;38.236;15.432;2022-10-16T05:37:59;101935.16;;;18.32
64296;BMP280;51082;38.236;15.432;2022-10-16T05:39:00;101935.56;;;18.36
64296;BMP280;51082;38.236;15.432;2022-10-16T05:40:04;101932.91;;;18.36
64296;BMP280;51082;38.236;15.432;2022-10-16T05:41:06;101934.97;;;18.27
64296;BMP280;51082;38.236;15.432;2022-10-16T05:42:08;101933.31;;;18.33
64296;BMP280;51082;38.236;15.432;2022-10-16T05:43:10;101930.69;;;18.33
64296;BMP280;51082;38.236;15.432;2022-10-16T05:44:12;101941.41;;;18.38
64296;BMP280;51082;38.236;15.432;2022-10-16T05:45:14;101934.31;;;18.38
64296;BMP280;51082;38.236;15.432;2022-10-16T05:46:17;101938.78;;;18.38
64296;BMP280;51082;38.236;15.432;2022-10-16T05:47:19;101942.41;;;18.37
64296;BMP280;51082;38.236;15.432;2022-10-16T05:48:22;101940.03;;;18.35
64296;BMP280;51082;38.236;15.432;2022-10-16T05:49:24;101939.56;;;18.45
64296;BMP280;51082;38.236;15.432;2022-10-16T05:50:28;101940.09;;;18.54
64296;BMP280;51082;38.236;15.432;2022-10-16T05:51:30;101938.59;;;18.64
64296;BMP280;51082;38.236;15.432;2022-10-16T05:52:32;101945.59;;;18.77
64296;BMP280;51082;38.236;15.432;2022-10-16T05:53:35;101943.00;;;18.95
64296;BMP280;51082;38.236;15.432;2022-10-16T05:54:38;101949.34;;;19.13
64296;BMP280;51082;38.236;15.432;2022-10-16T05:55:39;101956.19;;;19.20